sensor_id;sensor_type;location;lat;lon;timestamp;P1;durP1;ratioP1;P2;durP2;ratioP2
68216;SDS011;55037;52.354;4.992;2022-10-14T00:01:10;453.15;;;46.35;;
68216;SDS011;55037;52.354;4.992;2022-10-14T00:03:39;361.52;;;43.75;;
68216;SDS011;55037;52.354;4.992;2022-10-14T00:06:11;546.72;;;47.50;;
68216;SDS011;55037;52.354;4.992;2022-10-14T00:08:42;454.40;;;42.65;;
68216;SDS011;55037;52.354;4.992;2022-10-14T00:11:15;577.35;;;45.63;;
68216;SDS011;55037;52.354;4.992;2022-10-14T00:13:44;445.37;;;35.53;;
68216;SDS011;55037;52.354;4.992;2022-10-14T00:16:31;496.45;;;38.72;;
68216;SDS011;55037;52.354;4.992;2022-10-14T00:19:00;377.65;;;37.78;;
68216;SDS011;55037;52.354;4.992;2022-10-14T00:21:28;332.95;;;35.75;;
68216;SDS011;55037;52.354;4.992;2022-10-14T00:23:56;501.57;;;47.90;;
68216;SDS011;55037;52.354;4.992;2022-10-14T00:26:26;521.00;;;46.15;;
68216;SDS011;55037;52.354;4.992;2022-10-14T00:29:03;506.38;;;49.78;;
68216;SDS011;55037;52.354;4.992;2022-10-14T00:31:31;675.50;;;60.70;;
68216;SDS011;55037;52.354;4.992;2022-10-14T00:33:59;759.00;;;56.65;;
68216;SDS011;55037;52.354;4.992;2022-10-14T00:36:27;641.70;;;54.63;;
68216;SDS011;55037;52.354;4.992;2022-10-14T00:38:54;669.78;;;55.72;;
68216;SDS011;55037;52.354;4.992;2022-10-14T00:41:26;467.47;;;46.83;;
68216;SDS011;55037;52.354;4.992;2022-10-14T00:43:57;507.55;;;52.22;;
68216;SDS011;55037;52.354;4.992;2022-10-14T00:46:31;635.28;;;52.55;;
68216;SDS011;55037;52.354;4.992;2022-10-14T00:49:26;573.65;;;51.60;;
68216;SDS011;55037;52.354;4.992;2022-10-14T00:51:58;565.55;;;50.60;;
68216;SDS011;55037;52.354;4.992;2022-10-14T00:54:36;737.45;;;57.75;;
68216;SDS011;55037;52.354;4.992;2022-10-14T00:57:06;716.38;;;58.05;;
68216;SDS011;55037;52.354;4.992;2022-10-14T00:59:34;696.13;;;54.20;;
68216;SDS011;55037;52.354;4.992;2022-10-14T01:02:02;603.22;;;50.78;;
68216;SDS011;55037;52.354;4.992;2022-10-14T01:04:30;684.47;;;54.20;;
68216;SDS011;55037;52.354;4.992;2022-10-14T01:09:52;779.13;;;59.45;;
68216;SDS011;55037;52.354;4.992;2022-10-14T01:15:06;730.22;;;50.25;;
68216;SDS011;55037;52.354;4.992;2022-10-14T01:21:03;523.53;;;41.57;;
68216;SDS011;55037;52.354;4.992;2022-10-14T01:23:51;541.47;;;43.30;;
68216;SDS011;55037;52.354;4.992;2022-10-14T01:32:29;595.07;;;43.27;;
68216;SDS011;55037;52.354;4.992;2022-10-14T01:37:49;595.83;;;42.50;;
68216;SDS011;55037;52.354;4.992;2022-10-14T01:40:30;399.97;;;36.43;;
68216;SDS011;55037;52.354;4.992;2022-10-14T01:43:01;418.67;;;38.43;;
68216;SDS011;55037;52.354;4.992;2022-10-14T01:45:30;436.35;;;38.58;;
68216;SDS011;55037;52.354;4.992;2022-10-14T01:48:02;454.63;;;40.22;;
68216;SDS011;55037;52.354;4.992;2022-10-14T01:50:32;455.60;;;42.10;;
68216;SDS011;55037;52.354;4.992;2022-10-14T01:53:03;257.17;;;36.28;;
68216;SDS011;55037;52.354;4.992;2022-10-14T01:55:39;286.03;;;38.53;;
68216;SDS011;55037;52.354;4.992;2022-10-14T01:58:10;330.58;;;40.90;;
68216;SDS011;55037;52.354;4.992;2022-10-14T02:00:39;363.50;;;41.42;;
68216;SDS011;55037;52.354;4.992;2022-10-14T02:03:07;373.55;;;42.60;;
68216;SDS011;55037;52.354;4.992;2022-10-14T02:06:10;304.00;;;42.00;;
68216;SDS011;55037;52.354;4.992;2022-10-14T02:08:38;217.38;;;39.05;;
68216;SDS011;55037;52.354;4.992;2022-10-14T02:11:18;208.73;;;39.08;;
68216;SDS011;55037;52.354;4.992;2022-10-14T02:16:30;165.48;;;35.72;;
68216;SDS011;55037;52.354;4.992;2022-10-14T02:21:41;193.93;;;39.15;;
68216;SDS011;55037;52.354;4.992;2022-10-14T02:24:23;149.00;;;38.22;;
68216;SDS011;55037;52.354;4.992;2022-10-14T02:27:08;115.17;;;35.57;;
68216;SDS011;55037;52.354;4.992;2022-10-14T02:29:39;124.77;;;36.00;;
68216;SDS011;55037;52.354;4.992;2022-10-14T02:32:09;110.30;;;35.23;;
68216;SDS011;55037;52.354;4.992;2022-10-14T02:34:40;139.73;;;37.80;;
68216;SDS011;55037;52.354;4.992;2022-10-14T02:37:12;120.70;;;36.22;;
68216;SDS011;55037;52.354;4.992;2022-10-14T02:39:43;111.00;;;34.33;;
68216;SDS011;55037;52.354;4.992;2022-10-14T02:42:13;121.20;;;34.47;;
68216;SDS011;55037;52.354;4.992;2022-10-14T02:44:53;156.38;;;38.92;;
68216;SDS011;55037;52.354;4.992;2022-10-14T02:47:23;174.88;;;39.33;;
68216;SDS011;55037;52.354;4.992;2022-10-14T02:49:50;129.32;;;36.28;;
68216;SDS011;55037;52.354;4.992;2022-10-14T02:52:18;199.18;;;39.65;;
68216;SDS011;55037;52.354;4.992;2022-10-14T02:54:46;176.55;;;40.35;;
68216;SDS011;55037;52.354;4.992;2022-10-14T02:57:13;171.50;;;39.30;;
68216;SDS011;55037;52.354;4.992;2022-10-14T02:59:41;174.07;;;39.55;;
68216;SDS011;55037;52.354;4.992;2022-10-14T03:02:08;204.02;;;40.33;;
68216;SDS011;55037;52.354;4.992;2022-10-14T03:04:38;205.63;;;42.22;;
68216;SDS011;55037;52.354;4.992;2022-10-14T03:07:07;216.52;;;42.55;;
68216;SDS011;55037;52.354;4.992;2022-10-14T03:09:39;292.67;;;46.93;;
68216;SDS011;55037;52.354;4.992;2022-10-14T03:12:08;200.10;;;43.42;;
68216;SDS011;55037;52.354;4.992;2022-10-14T03:14:35;252.88;;;44.47;;
68216;SDS011;55037;52.354;4.992;2022-10-14T03:17:03;301.27;;;47.88;;
68216;SDS011;55037;52.354;4.992;2022-10-14T03:19:32;266.00;;;46.75;;
68216;SDS011;55037;52.354;4.992;2022-10-14T03:22:00;242.80;;;45.60;;
68216;SDS011;55037;52.354;4.992;2022-10-14T03:24:28;294.92;;;47.63;;
68216;SDS011;55037;52.354;4.992;2022-10-14T03:27:16;251.77;;;45.40;;
68216;SDS011;55037;52.354;4.992;2022-10-14T03:29:47;214.35;;;43.08;;
68216;SDS011;55037;52.354;4.992;2022-10-14T03:32:19;203.77;;;42.30;;
68216;SDS011;55037;52.354;4.992;2022-10-14T03:35:21;249.83;;;43.87;;
68216;SDS011;55037;52.354;4.992;2022-10-14T03:37:52;299.67;;;45.63;;
68216;SDS011;55037;52.354;4.992;2022-10-14T03:40:25;263.77;;;42.33;;
68216;SDS011;55037;52.354;4.992;2022-10-14T03:42:55;266.33;;;41.90;;
68216;SDS011;55037;52.354;4.992;2022-10-14T03:45:28;299.53;;;44.33;;
68216;SDS011;55037;52.354;4.992;2022-10-14T03:47:56;304.63;;;41.97;;
68216;SDS011;55037;52.354;4.992;2022-10-14T03:50:23;332.85;;;44.53;;
68216;SDS011;55037;52.354;4.992;2022-10-14T03:52:53;264.25;;;42.08;;
68216;SDS011;55037;52.354;4.992;2022-10-14T03:55:31;311.60;;;42.83;;
68216;SDS011;55037;52.354;4.992;2022-10-14T03:57:59;251.48;;;39.97;;
68216;SDS011;55037;52.354;4.992;2022-10-14T04:00:26;249.05;;;39.83;;
68216;SDS011;55037;52.354;4.992;2022-10-14T04:03:07;274.77;;;40.15;;
68216;SDS011;55037;52.354;4.992;2022-10-14T04:05:38;221.93;;;38.00;;
68216;SDS011;55037;52.354;4.992;2022-10-14T04:08:13;204.27;;;37.20;;
68216;SDS011;55037;52.354;4.992;2022-10-14T04:10:50;196.35;;;35.45;;
68216;SDS011;55037;52.354;4.992;2022-10-14T04:13:21;270.05;;;39.72;;
68216;SDS011;55037;52.354;4.992;2022-10-14T04:15:49;238.95;;;38.58;;
68216;SDS011;55037;52.354;4.992;2022-10-14T04:18:37;219.85;;;36.83;;
68216;SDS011;55037;52.354;4.992;2022-10-14T04:21:07;206.65;;;36.20;;
68216;SDS011;55037;52.354;4.992;2022-10-14T04:23:37;200.93;;;35.43;;
68216;SDS011;55037;52.354;4.992;2022-10-14T04:26:12;218.32;;;36.38;;
68216;SDS011;55037;52.354;4.992;2022-10-14T04:28:42;183.80;;;33.88;;
68216;SDS011;55037;52.354;4.992;2022-10-14T04:31:25;207.88;;;35.28;;
68216;SDS011;55037;52.354;4.992;2022-10-14T04:33:59;169.38;;;34.67;;
68216;SDS011;55037;52.354;4.992;2022-10-14T04:36:32;142.27;;;32.13;;
68216;SDS011;55037;52.354;4.992;2022-10-14T04:39:00;180.38;;;34.22;;
68216;SDS011;55037;52.354;4.992;2022-10-14T04:41:28;226.15;;;35.40;;
68216;SDS011;55037;52.354;4.992;2022-10-14T04:43:57;177.43;;;32.43;;
68216;SDS011;55037;52.354;4.992;2022-10-14T04:46:37;151.70;;;28.33;;
68216;SDS011;55037;52.354;4.992;2022-10-14T04:49:04;178.45;;;31.75;;
68216;SDS011;55037;52.354;4.992;2022-10-14T04:51:37;162.80;;;29.13;;
68216;SDS011;55037;52.354;4.992;2022-10-14T04:54:07;183.50;;;32.83;;
68216;SDS011;55037;52.354;4.992;2022-10-14T04:56:58;182.43;;;32.80;;
68216;SDS011;55037;52.354;4.992;2022-10-14T04:59:28;191.05;;;32.15;;
68216;SDS011;55037;52.354;4.992;2022-10-14T05:02:18;178.70;;;30.20;;
68216;SDS011;55037;52.354;4.992;2022-10-14T05:04:50;217.77;;;33.35;;
68216;SDS011;55037;52.354;4.992;2022-10-14T05:07:17;223.32;;;33.67;;
68216;SDS011;55037;52.354;4.992;2022-10-14T05:09:49;203.48;;;32.35;;
68216;SDS011;55037;52.354;4.992;2022-10-14T05:12:30;205.10;;;33.83;;
68216;SDS011;55037;52.354;4.992;2022-10-14T05:15:00;211.45;;;33.97;;
68216;SDS011;55037;52.354;4.992;2022-10-14T05:17:34;243.52;;;35.63;;
68216;SDS011;55037;52.354;4.992;2022-10-14T05:20:04;270.38;;;36.40;;
68216;SDS011;55037;52.354;4.992;2022-10-14T05:22:34;280.90;;;36.38;;
68216;SDS011;55037;52.354;4.992;2022-10-14T05:25:02;276.70;;;35.53;;
68216;SDS011;55037;52.354;4.992;2022-10-14T05:27:31;258.23;;;35.80;;
68216;SDS011;55037;52.354;4.992;2022-10-14T05:30:00;241.57;;;35.90;;
68216;SDS011;55037;52.354;4.992;2022-10-14T05:32:28;286.17;;;36.90;;
68216;SDS011;55037;52.354;4.992;2022-10-14T05:35:03;295.90;;;37.10;;
68216;SDS011;55037;52.354;4.992;2022-10-14T05:37:35;313.55;;;38.55;;
68216;SDS011;55037;52.354;4.992;2022-10-14T05:40:03;292.38;;;36.03;;
68216;SDS011;55037;52.354;4.992;2022-10-14T05:42:34;335.17;;;39.30;;
68216;SDS011;55037;52.354;4.992;2022-10-14T05:45:01;288.80;;;38.33;;
68216;SDS011;55037;52.354;4.992;2022-10-14T05:47:31;339.83;;;38.60;;
68216;SDS011;55037;52.354;4.992;2022-10-14T05:50:08;274.85;;;37.15;;
68216;SDS011;55037;52.354;4.992;2022-10-14T05:52:35;285.92;;;37.60;;
68216;SDS011;55037;52.354;4.992;2022-10-14T05:55:12;319.05;;;39.03;;
68216;SDS011;55037;52.354;4.992;2022-10-14T05:57:41;290.42;;;38.30;;
68216;SDS011;55037;52.354;4.992;2022-10-14T06:00:12;340.73;;;39.28;;
68216;SDS011;55037;52.354;4.992;2022-10-14T06:02:44;250.17;;;36.10;;
68216;SDS011;55037;52.354;4.992;2022-10-14T06:05:15;236.93;;;36.03;;
68216;SDS011;55037;52.354;4.992;2022-10-14T06:07:42;217.27;;;34.67;;
68216;SDS011;55037;52.354;4.992;2022-10-14T06:10:10;202.25;;;33.80;;
68216;SDS011;55037;52.354;4.992;2022-10-14T06:12:37;159.20;;;31.08;;
68216;SDS011;55037;52.354;4.992;2022-10-14T06:15:05;181.20;;;31.77;;
68216;SDS011;55037;52.354;4.992;2022-10-14T06:17:32;119.43;;;28.80;;
68216;SDS011;55037;52.354;4.992;2022-10-14T06:19:59;98.10;;;25.73;;
68216;SDS011;55037;52.354;4.992;2022-10-14T06:22:27;130.75;;;27.63;;
68216;SDS011;55037;52.354;4.992;2022-10-14T06:24:54;120.67;;;27.57;;
68216;SDS011;55037;52.354;4.992;2022-10-14T06:27:27;99.50;;;25.83;;
68216;SDS011;55037;52.354;4.992;2022-10-14T06:29:54;99.70;;;24.23;;
68216;SDS011;55037;52.354;4.992;2022-10-14T06:32:21;111.85;;;25.38;;
68216;SDS011;55037;52.354;4.992;2022-10-14T06:34:49;95.30;;;24.23;;
68216;SDS011;55037;52.354;4.992;2022-10-14T06:37:16;97.60;;;25.00;;
68216;SDS011;55037;52.354;4.992;2022-10-14T06:39:43;96.40;;;23.87;;
68216;SDS011;55037;52.354;4.992;2022-10-14T06:42:10;102.03;;;22.88;;
68216;SDS011;55037;52.354;4.992;2022-10-14T06:44:39;91.60;;;23.02;;
68216;SDS011;55037;52.354;4.992;2022-10-14T06:47:06;70.65;;;20.38;;
68216;SDS011;55037;52.354;4.992;2022-10-14T06:49:33;85.18;;;21.80;;
68216;SDS011;55037;52.354;4.992;2022-10-14T06:52:01;99.30;;;22.15;;
68216;SDS011;55037;52.354;4.992;2022-10-14T06:54:28;68.35;;;20.80;;
68216;SDS011;55037;52.354;4.992;2022-10-14T06:56:55;70.78;;;21.05;;
68216;SDS011;55037;52.354;4.992;2022-10-14T06:59:22;79.80;;;20.83;;
68216;SDS011;55037;52.354;4.992;2022-10-14T07:01:50;70.30;;;20.35;;
68216;SDS011;55037;52.354;4.992;2022-10-14T07:04:17;65.97;;;20.10;;
68216;SDS011;55037;52.354;4.992;2022-10-14T07:06:44;68.05;;;19.60;;
68216;SDS011;55037;52.354;4.992;2022-10-14T07:09:11;76.40;;;19.67;;
68216;SDS011;55037;52.354;4.992;2022-10-14T07:11:39;76.97;;;20.10;;
68216;SDS011;55037;52.354;4.992;2022-10-14T07:14:08;82.67;;;20.23;;
68216;SDS011;55037;52.354;4.992;2022-10-14T07:16:36;76.07;;;19.75;;
68216;SDS011;55037;52.354;4.992;2022-10-14T07:19:03;82.38;;;20.17;;
68216;SDS011;55037;52.354;4.992;2022-10-14T07:21:30;81.47;;;19.17;;
68216;SDS011;55037;52.354;4.992;2022-10-14T07:23:57;70.55;;;18.63;;
68216;SDS011;55037;52.354;4.992;2022-10-14T07:26:24;59.72;;;17.35;;
68216;SDS011;55037;52.354;4.992;2022-10-14T07:28:52;77.07;;;18.30;;
68216;SDS011;55037;52.354;4.992;2022-10-14T07:31:19;52.37;;;16.77;;
68216;SDS011;55037;52.354;4.992;2022-10-14T07:33:46;61.90;;;17.10;;
68216;SDS011;55037;52.354;4.992;2022-10-14T07:36:16;62.50;;;17.03;;
68216;SDS011;55037;52.354;4.992;2022-10-14T07:38:48;49.73;;;15.87;;
68216;SDS011;55037;52.354;4.992;2022-10-14T07:41:17;48.40;;;15.75;;
68216;SDS011;55037;52.354;4.992;2022-10-14T07:44:07;52.08;;;17.08;;
68216;SDS011;55037;52.354;4.992;2022-10-14T07:46:36;57.70;;;17.02;;
68216;SDS011;55037;52.354;4.992;2022-10-14T07:49:07;50.67;;;16.55;;
68216;SDS011;55037;52.354;4.992;2022-10-14T07:51:34;56.25;;;16.65;;
68216;SDS011;55037;52.354;4.992;2022-10-14T07:54:02;76.13;;;19.05;;
68216;SDS011;55037;52.354;4.992;2022-10-14T07:56:31;52.83;;;16.83;;
68216;SDS011;55037;52.354;4.992;2022-10-14T07:59:00;63.35;;;18.55;;
68216;SDS011;55037;52.354;4.992;2022-10-14T08:01:27;71.83;;;18.90;;
68216;SDS011;55037;52.354;4.992;2022-10-14T08:03:54;61.03;;;17.92;;
68216;SDS011;55037;52.354;4.992;2022-10-14T08:06:22;78.67;;;19.17;;
68216;SDS011;55037;52.354;4.992;2022-10-14T08:08:49;67.78;;;17.75;;
68216;SDS011;55037;52.354;4.992;2022-10-14T08:11:21;63.53;;;17.50;;
68216;SDS011;55037;52.354;4.992;2022-10-14T08:13:50;60.33;;;17.48;;
68216;SDS011;55037;52.354;4.992;2022-10-14T08:18:50;65.45;;;17.48;;
68216;SDS011;55037;52.354;4.992;2022-10-14T08:21:18;66.38;;;18.33;;
68216;SDS011;55037;52.354;4.992;2022-10-14T08:23:47;64.60;;;17.08;;
68216;SDS011;55037;52.354;4.992;2022-10-14T08:26:27;67.17;;;17.60;;
68216;SDS011;55037;52.354;4.992;2022-10-14T08:29:00;70.60;;;18.08;;
68216;SDS011;55037;52.354;4.992;2022-10-14T08:31:29;78.13;;;18.17;;
68216;SDS011;55037;52.354;4.992;2022-10-14T08:33:57;68.00;;;18.52;;
68216;SDS011;55037;52.354;4.992;2022-10-14T08:36:24;75.10;;;18.40;;
68216;SDS011;55037;52.354;4.992;2022-10-14T08:38:52;82.70;;;19.67;;
68216;SDS011;55037;52.354;4.992;2022-10-14T08:44:37;64.07;;;17.98;;
68216;SDS011;55037;52.354;4.992;2022-10-14T08:47:15;61.88;;;16.83;;
68216;SDS011;55037;52.354;4.992;2022-10-14T08:50:01;69.80;;;18.10;;
68216;SDS011;55037;52.354;4.992;2022-10-14T08:52:52;59.20;;;17.17;;
68216;SDS011;55037;52.354;4.992;2022-10-14T08:55:28;68.53;;;18.83;;
68216;SDS011;55037;52.354;4.992;2022-10-14T09:00:44;68.63;;;18.07;;
68216;SDS011;55037;52.354;4.992;2022-10-14T09:03:17;68.07;;;17.88;;
68216;SDS011;55037;52.354;4.992;2022-10-14T09:05:55;67.45;;;18.33;;
68216;SDS011;55037;52.354;4.992;2022-10-14T09:11:01;91.20;;;21.60;;
68216;SDS011;55037;52.354;4.992;2022-10-14T09:13:34;95.53;;;20.23;;
68216;SDS011;55037;52.354;4.992;2022-10-14T09:18:56;98.22;;;21.75;;
68216;SDS011;55037;52.354;4.992;2022-10-14T09:24:22;114.80;;;22.70;;
68216;SDS011;55037;52.354;4.992;2022-10-14T09:26:53;107.00;;;24.47;;
68216;SDS011;55037;52.354;4.992;2022-10-14T09:29:58;105.63;;;22.73;;
68216;SDS011;55037;52.354;4.992;2022-10-14T09:37:49;101.28;;;25.08;;
68216;SDS011;55037;52.354;4.992;2022-10-14T09:40:19;69.88;;;19.88;;
68216;SDS011;55037;52.354;4.992;2022-10-14T09:48:31;81.22;;;22.25;;
68216;SDS011;55037;52.354;4.992;2022-10-14T09:51:25;81.78;;;22.13;;
68216;SDS011;55037;52.354;4.992;2022-10-14T09:53:59;65.43;;;19.70;;
68216;SDS011;55037;52.354;4.992;2022-10-14T09:59:15;61.70;;;18.10;;
68216;SDS011;55037;52.354;4.992;2022-10-14T10:01:51;59.53;;;17.00;;
68216;SDS011;55037;52.354;4.992;2022-10-14T10:06:57;46.27;;;15.73;;
68216;SDS011;55037;52.354;4.992;2022-10-14T10:09:27;46.83;;;15.05;;
68216;SDS011;55037;52.354;4.992;2022-10-14T10:11:54;49.55;;;15.30;;
68216;SDS011;55037;52.354;4.992;2022-10-14T10:14:22;47.17;;;15.18;;
68216;SDS011;55037;52.354;4.992;2022-10-14T10:19:37;34.40;;;13.17;;
68216;SDS011;55037;52.354;4.992;2022-10-14T10:24:50;53.28;;;16.33;;
68216;SDS011;55037;52.354;4.992;2022-10-14T10:30:46;40.90;;;15.32;;
68216;SDS011;55037;52.354;4.992;2022-10-14T10:35:49;45.72;;;16.02;;
68216;SDS011;55037;52.354;4.992;2022-10-14T10:38:35;46.25;;;16.25;;
68216;SDS011;55037;52.354;4.992;2022-10-14T10:47:22;45.85;;;16.55;;
68216;SDS011;55037;52.354;4.992;2022-10-14T10:52:50;49.03;;;16.17;;
68216;SDS011;55037;52.354;4.992;2022-10-14T10:58:38;42.20;;;15.02;;
68216;SDS011;55037;52.354;4.992;2022-10-14T11:10:26;31.67;;;12.63;;
68216;SDS011;55037;52.354;4.992;2022-10-14T11:16:01;28.92;;;12.70;;
68216;SDS011;55037;52.354;4.992;2022-10-14T11:19:02;34.75;;;14.45;;
68216;SDS011;55037;52.354;4.992;2022-10-14T11:21:51;41.33;;;15.18;;
68216;SDS011;55037;52.354;4.992;2022-10-14T11:27:37;31.67;;;13.30;;
68216;SDS011;55037;52.354;4.992;2022-10-14T11:36:29;31.85;;;12.95;;
68216;SDS011;55037;52.354;4.992;2022-10-14T11:44:40;28.40;;;12.27;;
68216;SDS011;55037;52.354;4.992;2022-10-14T11:47:20;30.45;;;13.18;;
68216;SDS011;55037;52.354;4.992;2022-10-14T11:50:09;33.65;;;13.95;;
68216;SDS011;55037;52.354;4.992;2022-10-14T11:52:42;29.42;;;13.43;;
68216;SDS011;55037;52.354;4.992;2022-10-14T11:55:16;25.53;;;12.83;;
68216;SDS011;55037;52.354;4.992;2022-10-14T11:57:50;28.45;;;13.27;;
68216;SDS011;55037;52.354;4.992;2022-10-14T12:00:20;27.02;;;12.30;;
68216;SDS011;55037;52.354;4.992;2022-10-14T12:03:01;34.78;;;14.48;;
68216;SDS011;55037;52.354;4.992;2022-10-14T12:05:51;30.57;;;13.90;;
68216;SDS011;55037;52.354;4.992;2022-10-14T12:08:40;28.98;;;13.70;;
68216;SDS011;55037;52.354;4.992;2022-10-14T12:11:16;23.07;;;12.33;;
68216;SDS011;55037;52.354;4.992;2022-10-14T12:14:05;27.27;;;13.33;;
68216;SDS011;55037;52.354;4.992;2022-10-14T12:16:47;28.55;;;13.93;;
68216;SDS011;55037;52.354;4.992;2022-10-14T12:19:17;21.55;;;12.27;;
68216;SDS011;55037;52.354;4.992;2022-10-14T12:21:58;25.50;;;13.60;;
68216;SDS011;55037;52.354;4.992;2022-10-14T12:24:54;18.53;;;11.47;;
68216;SDS011;55037;52.354;4.992;2022-10-14T12:27:24;21.55;;;12.82;;
68216;SDS011;55037;52.354;4.992;2022-10-14T12:29:54;21.77;;;12.63;;
68216;SDS011;55037;52.354;4.992;2022-10-14T12:34:57;19.20;;;12.38;;
68216;SDS011;55037;52.354;4.992;2022-10-14T12:42:28;14.18;;;11.13;;
68216;SDS011;55037;52.354;4.992;2022-10-14T12:45:21;14.03;;;10.10;;
68216;SDS011;55037;52.354;4.992;2022-10-14T12:50:36;12.10;;;10.13;;
68216;SDS011;55037;52.354;4.992;2022-10-14T12:53:05;13.07;;;10.30;;
68216;SDS011;55037;52.354;4.992;2022-10-14T12:55:54;10.73;;;8.43;;
68216;SDS011;55037;52.354;4.992;2022-10-14T12:59:17;12.30;;;9.23;;
68216;SDS011;55037;52.354;4.992;2022-10-14T13:01:37;9.50;;;7.00;;
68216;SDS011;55037;52.354;4.992;2022-10-14T13:04:15;9.05;;;6.40;;
68216;SDS011;55037;52.354;4.992;2022-10-14T13:10:24;8.83;;;6.90;;
68216;SDS011;55037;52.354;4.992;2022-10-14T13:12:52;9.68;;;6.82;;
68216;SDS011;55037;52.354;4.992;2022-10-14T13:15:36;8.25;;;6.32;;
68216;SDS011;55037;52.354;4.992;2022-10-14T13:18:30;8.38;;;6.35;;
68216;SDS011;55037;52.354;4.992;2022-10-14T13:20:58;11.38;;;6.28;;
68216;SDS011;55037;52.354;4.992;2022-10-14T13:29:07;10.07;;;6.47;;
68216;SDS011;55037;52.354;4.992;2022-10-14T13:37:55;9.45;;;6.15;;
68216;SDS011;55037;52.354;4.992;2022-10-14T13:40:29;10.13;;;6.30;;
68216;SDS011;55037;52.354;4.992;2022-10-14T13:43:14;9.20;;;5.80;;
68216;SDS011;55037;52.354;4.992;2022-10-14T13:49:07;8.02;;;4.68;;
68216;SDS011;55037;52.354;4.992;2022-10-14T13:54:12;8.75;;;3.50;;
68216;SDS011;55037;52.354;4.992;2022-10-14T13:56:56;5.70;;;3.20;;
68216;SDS011;55037;52.354;4.992;2022-10-14T13:59:45;5.97;;;3.00;;
68216;SDS011;55037;52.354;4.992;2022-10-14T14:02:37;6.50;;;2.67;;
68216;SDS011;55037;52.354;4.992;2022-10-14T14:05:09;5.80;;;2.80;;
68216;SDS011;55037;52.354;4.992;2022-10-14T14:07:41;6.32;;;2.78;;
68216;SDS011;55037;52.354;4.992;2022-10-14T14:10:30;4.43;;;2.47;;
68216;SDS011;55037;52.354;4.992;2022-10-14T14:12:58;5.37;;;2.47;;
68216;SDS011;55037;52.354;4.992;2022-10-14T14:15:30;4.15;;;2.40;;
68216;SDS011;55037;52.354;4.992;2022-10-14T14:17:57;4.32;;;2.50;;
68216;SDS011;55037;52.354;4.992;2022-10-14T14:20:25;4.25;;;2.60;;
68216;SDS011;55037;52.354;4.992;2022-10-14T14:22:59;4.72;;;2.40;;
68216;SDS011;55037;52.354;4.992;2022-10-14T14:25:26;5.18;;;2.63;;
68216;SDS011;55037;52.354;4.992;2022-10-14T14:28:10;4.47;;;2.60;;
68216;SDS011;55037;52.354;4.992;2022-10-14T14:30:40;4.85;;;2.50;;
68216;SDS011;55037;52.354;4.992;2022-10-14T14:33:24;6.35;;;2.70;;
68216;SDS011;55037;52.354;4.992;2022-10-14T14:35:57;5.20;;;2.50;;
68216;SDS011;55037;52.354;4.992;2022-10-14T14:38:30;5.88;;;2.60;;
68216;SDS011;55037;52.354;4.992;2022-10-14T14:41:03;6.97;;;2.72;;
68216;SDS011;55037;52.354;4.992;2022-10-14T14:43:31;6.00;;;3.40;;
68216;SDS011;55037;52.354;4.992;2022-10-14T14:46:05;8.13;;;3.85;;
68216;SDS011;55037;52.354;4.992;2022-10-14T14:48:33;6.03;;;3.70;;
68216;SDS011;55037;52.354;4.992;2022-10-14T14:51:11;6.90;;;3.63;;
68216;SDS011;55037;52.354;4.992;2022-10-14T14:53:40;7.10;;;3.50;;
68216;SDS011;55037;52.354;4.992;2022-10-14T14:56:12;7.90;;;4.00;;
68216;SDS011;55037;52.354;4.992;2022-10-14T14:58:45;7.90;;;3.78;;
68216;SDS011;55037;52.354;4.992;2022-10-14T15:04:06;6.40;;;3.28;;
68216;SDS011;55037;52.354;4.992;2022-10-14T15:06:50;6.72;;;3.40;;
68216;SDS011;55037;52.354;4.992;2022-10-14T15:09:29;6.68;;;3.85;;
68216;SDS011;55037;52.354;4.992;2022-10-14T15:12:15;5.50;;;2.97;;
68216;SDS011;55037;52.354;4.992;2022-10-14T15:14:46;6.53;;;3.67;;
68216;SDS011;55037;52.354;4.992;2022-10-14T15:22:55;4.88;;;2.47;;
68216;SDS011;55037;52.354;4.992;2022-10-14T15:25:30;7.35;;;2.63;;
68216;SDS011;55037;52.354;4.992;2022-10-14T15:27:58;5.65;;;2.10;;
68216;SDS011;55037;52.354;4.992;2022-10-14T15:33:15;4.68;;;2.20;;
68216;SDS011;55037;52.354;4.992;2022-10-14T15:35:53;5.80;;;2.50;;
68216;SDS011;55037;52.354;4.992;2022-10-14T15:38:23;6.57;;;2.50;;
68216;SDS011;55037;52.354;4.992;2022-10-14T15:40:51;5.53;;;2.72;;
68216;SDS011;55037;52.354;4.992;2022-10-14T15:43:22;5.45;;;2.47;;
68216;SDS011;55037;52.354;4.992;2022-10-14T15:45:54;5.93;;;2.60;;
68216;SDS011;55037;52.354;4.992;2022-10-14T15:48:48;5.43;;;2.67;;
68216;SDS011;55037;52.354;4.992;2022-10-14T15:51:20;6.10;;;2.88;;
68216;SDS011;55037;52.354;4.992;2022-10-14T15:53:49;6.07;;;3.27;;
68216;SDS011;55037;52.354;4.992;2022-10-14T15:56:17;5.27;;;3.20;;
68216;SDS011;55037;52.354;4.992;2022-10-14T15:58:46;5.83;;;3.40;;
68216;SDS011;55037;52.354;4.992;2022-10-14T16:01:21;6.50;;;3.30;;
68216;SDS011;55037;52.354;4.992;2022-10-14T16:03:49;7.93;;;3.25;;
68216;SDS011;55037;52.354;4.992;2022-10-14T16:06:20;6.53;;;3.13;;
68216;SDS011;55037;52.354;4.992;2022-10-14T16:08:49;6.00;;;2.97;;
68216;SDS011;55037;52.354;4.992;2022-10-14T16:11:25;6.22;;;3.15;;
68216;SDS011;55037;52.354;4.992;2022-10-14T16:13:54;6.32;;;3.28;;
68216;SDS011;55037;52.354;4.992;2022-10-14T16:16:30;6.72;;;3.05;;
68216;SDS011;55037;52.354;4.992;2022-10-14T16:19:04;6.75;;;3.10;;
68216;SDS011;55037;52.354;4.992;2022-10-14T16:21:31;6.60;;;3.10;;
68216;SDS011;55037;52.354;4.992;2022-10-14T16:23:59;6.97;;;3.30;;
68216;SDS011;55037;52.354;4.992;2022-10-14T16:26:28;7.38;;;3.63;;
68216;SDS011;55037;52.354;4.992;2022-10-14T16:28:56;7.20;;;3.80;;
68216;SDS011;55037;52.354;4.992;2022-10-14T16:31:25;7.82;;;4.60;;
68216;SDS011;55037;52.354;4.992;2022-10-14T16:33:53;8.80;;;4.47;;
68216;SDS011;55037;52.354;4.992;2022-10-14T16:36:21;7.77;;;4.67;;
68216;SDS011;55037;52.354;4.992;2022-10-14T16:38:50;7.63;;;4.40;;
68216;SDS011;55037;52.354;4.992;2022-10-14T16:41:18;9.38;;;4.72;;
68216;SDS011;55037;52.354;4.992;2022-10-14T16:43:45;8.77;;;4.80;;
68216;SDS011;55037;52.354;4.992;2022-10-14T16:46:16;8.77;;;5.00;;
68216;SDS011;55037;52.354;4.992;2022-10-14T16:48:46;8.88;;;5.18;;
68216;SDS011;55037;52.354;4.992;2022-10-14T16:51:13;9.80;;;5.10;;
68216;SDS011;55037;52.354;4.992;2022-10-14T16:53:41;10.40;;;5.53;;
68216;SDS011;55037;52.354;4.992;2022-10-14T16:56:14;12.00;;;5.20;;
68216;SDS011;55037;52.354;4.992;2022-10-14T16:59:02;10.48;;;5.13;;
68216;SDS011;55037;52.354;4.992;2022-10-14T17:01:30;9.02;;;5.53;;
68216;SDS011;55037;52.354;4.992;2022-10-14T17:03:58;9.27;;;5.35;;
68216;SDS011;55037;52.354;4.992;2022-10-14T17:06:26;9.40;;;5.43;;
68216;SDS011;55037;52.354;4.992;2022-10-14T17:08:53;10.57;;;5.40;;
68216;SDS011;55037;52.354;4.992;2022-10-14T17:11:21;10.60;;;5.75;;
68216;SDS011;55037;52.354;4.992;2022-10-14T17:13:51;13.55;;;6.30;;
68216;SDS011;55037;52.354;4.992;2022-10-14T17:16:20;11.27;;;6.00;;
68216;SDS011;55037;52.354;4.992;2022-10-14T17:18:47;10.27;;;5.77;;
68216;SDS011;55037;52.354;4.992;2022-10-14T17:21:19;10.63;;;5.97;;
68216;SDS011;55037;52.354;4.992;2022-10-14T17:23:47;11.13;;;6.00;;
68216;SDS011;55037;52.354;4.992;2022-10-14T17:26:16;11.90;;;6.30;;